createdAt,value
2022-11-13T00:01:38.337Z,102085.09
2022-11-13T00:04:04.925Z,102083.75
2022-11-13T00:06:31.325Z,102081.50
2022-11-13T00:08:57.836Z,102092.44
2022-11-13T00:11:24.499Z,102084.69
2022-11-13T00:13:50.984Z,102091.00
2022-11-13T00:16:20.589Z,102097.72
2022-11-13T00:18:48.289Z,102076.78
2022-11-13T00:21:21.432Z,102082.31
2022-11-13T00:23:48.191Z,102080.59
2022-11-13T00:26:21.187Z,102073.81
2022-11-13T00:28:47.772Z,102071.97
2022-11-13T00:31:15.478Z,102066.69
2022-11-13T00:36:28.984Z,102066.84
2022-11-13T00:38:55.876Z,102058.84
2022-11-13T00:41:23.854Z,102064.97
2022-11-13T00:43:50.400Z,102064.31
2022-11-13T00:46:16.891Z,102057.31
2022-11-13T00:48:43.518Z,102053.69
2022-11-13T00:51:10.149Z,102052.25
2022-11-13T00:53:36.572Z,102055.31
2022-11-13T00:56:03.435Z,102057.13
2022-11-13T00:58:30.199Z,102044.88
2022-11-13T01:01:06.140Z,102042.97
2022-11-13T01:03:32.691Z,102052.19
2022-11-13T01:06:10.319Z,102045.19
2022-11-13T01:08:36.801Z,102043.09
2022-11-13T01:11:09.592Z,102045.19
2022-11-13T01:13:36.019Z,102044.66
2022-11-13T01:16:06.824Z,102056.13
2022-11-13T01:18:33.535Z,102047.94
2022-11-13T01:21:09.481Z,102041.75
2022-11-13T01:23:36.693Z,102042.28
2022-11-13T01:26:06.422Z,102043.09
2022-11-13T01:28:33.025Z,102041.41
2022-11-13T01:30:59.483Z,102041.47
2022-11-13T01:33:25.907Z,102043.38
2022-11-13T01:35:52.317Z,102035.09
2022-11-13T01:38:18.739Z,102036.34
2022-11-13T01:40:46.921Z,102028.81
2022-11-13T01:43:33.385Z,102032.69
2022-11-13T01:45:59.741Z,102027.94
2022-11-13T01:48:32.876Z,102036.50
2022-11-13T01:50:59.535Z,102030.31
2022-11-13T01:53:27.846Z,102026.84
2022-11-13T01:55:54.532Z,102028.59
2022-11-13T01:58:21.174Z,102029.63
2022-11-13T02:00:47.795Z,102021.75
2022-11-13T02:03:14.357Z,102019.03
2022-11-13T02:05:40.803Z,102015.56
2022-11-13T02:08:07.266Z,102012.56
2022-11-13T02:10:33.743Z,102005.47
2022-11-13T02:13:00.450Z,102005.47
2022-11-13T02:15:31.974Z,101997.47
2022-11-13T02:18:00.478Z,102001.50
2022-11-13T02:20:48.526Z,101995.63
2022-11-13T02:23:24.136Z,102002.03
2022-11-13T02:25:53.376Z,102003.81
2022-11-13T02:28:20.105Z,101995.97
2022-11-13T02:30:46.642Z,102008.50
2022-11-13T02:33:33.181Z,102000.97
2022-11-13T02:36:00.030Z,101993.19
2022-11-13T02:38:26.812Z,101993.66
2022-11-13T02:40:53.390Z,101999.47
2022-11-13T02:43:19.856Z,101999.69
2022-11-13T02:45:46.322Z,102002.22
2022-11-13T02:48:12.819Z,101990.75
2022-11-13T02:50:39.510Z,101993.59
2022-11-13T02:53:06.517Z,101991.84
2022-11-13T02:55:33.193Z,101998.50
2022-11-13T02:57:59.633Z,102000.94
2022-11-13T03:00:26.433Z,102000.84
2022-11-13T03:02:52.932Z,102002.78
2022-11-13T03:05:19.475Z,101999.31
2022-11-13T03:07:45.949Z,101999.88
2022-11-13T03:10:12.626Z,102003.09
2022-11-13T03:12:40.581Z,102003.97
2022-11-13T03:15:08.751Z,102005.28
2022-11-13T03:17:35.821Z,101994.22
2022-11-13T03:20:02.594Z,101988.91
2022-11-13T03:22:29.065Z,102001.78
2022-11-13T03:24:55.530Z,101997.63
2022-11-13T03:27:22.353Z,102000.97
2022-11-13T03:29:48.872Z,101995.59
2022-11-13T03:32:15.479Z,101992.47
2022-11-13T03:34:42.313Z,101983.97
2022-11-13T03:37:08.742Z,101994.31
2022-11-13T03:39:35.151Z,101991.84
2022-11-13T03:42:01.568Z,101992.69
2022-11-13T03:44:28.008Z,102007.56
2022-11-13T03:46:54.428Z,101996.50
2022-11-13T03:49:20.903Z,101993.06
2022-11-13T03:51:47.387Z,101999.00
2022-11-13T03:54:13.867Z,101991.72
2022-11-13T03:56:40.314Z,101987.97
2022-11-13T03:59:06.784Z,101991.56
2022-11-13T04:01:33.260Z,101979.81
2022-11-13T04:03:59.716Z,101978.97
2022-11-13T04:06:26.207Z,101977.91
2022-11-13T04:08:54.007Z,101969.09
2022-11-13T04:11:20.501Z,101968.88
2022-11-13T04:13:46.928Z,101975.59
2022-11-13T04:16:13.593Z,101984.19
2022-11-13T04:18:39.999Z,101979.03
2022-11-13T04:21:06.518Z,101967.63
2022-11-13T04:23:35.277Z,101973.03
2022-11-13T04:26:01.691Z,101955.53
2022-11-13T04:28:28.536Z,101951.91
2022-11-13T04:30:57.157Z,101951.94
2022-11-13T04:33:23.709Z,101955.66
2022-11-13T04:35:50.123Z,101953.59
2022-11-13T04:38:16.549Z,101953.38
2022-11-13T04:40:43.347Z,101948.25
2022-11-13T04:43:09.791Z,101949.09
2022-11-13T04:45:36.968Z,101952.34
2022-11-13T04:48:03.726Z,101947.91
2022-11-13T04:50:30.440Z,101953.25
2022-11-13T04:52:56.919Z,101953.06
2022-11-13T04:55:23.480Z,101953.00
2022-11-13T04:57:51.421Z,101950.28
2022-11-13T05:00:18.209Z,101952.06
2022-11-13T05:02:44.657Z,101940.59
2022-11-13T05:05:11.073Z,101939.69
2022-11-13T05:07:37.510Z,101936.94
2022-11-13T05:10:04.475Z,101943.25
2022-11-13T05:12:30.895Z,101941.78
2022-11-13T05:14:57.318Z,101942.75
2022-11-13T05:17:23.748Z,101934.59
2022-11-13T05:19:50.236Z,101935.47
2022-11-13T05:22:16.676Z,101934.53
2022-11-13T05:24:43.158Z,101925.69
2022-11-13T05:27:14.171Z,101928.91
2022-11-13T05:29:43.528Z,101930.75
2022-11-13T05:32:09.961Z,101926.50
2022-11-13T05:34:36.395Z,101923.56
2022-11-13T05:37:02.787Z,101916.69
2022-11-13T05:39:29.192Z,101916.31
2022-11-13T05:41:55.672Z,101921.41
2022-11-13T05:44:22.075Z,101916.25
2022-11-13T05:46:48.560Z,101919.91
2022-11-13T05:49:15.513Z,101909.31
2022-11-13T05:51:41.998Z,101912.56
2022-11-13T05:54:08.761Z,101919.06
2022-11-13T05:56:36.538Z,101920.22
2022-11-13T05:59:04.176Z,101914.69
2022-11-13T06:01:32.248Z,101916.38
2022-11-13T06:04:00.636Z,101912.06
2022-11-13T06:06:28.871Z,101910.47
2022-11-13T06:08:56.441Z,101906.66
2022-11-13T06:11:27.314Z,101905.84
2022-11-13T06:13:55.116Z,101908.75
2022-11-13T06:16:27.436Z,101904.09
2022-11-13T06:18:59.370Z,101898.75
2022-11-13T06:21:29.647Z,101899.88
2022-11-13T06:24:00.257Z,101903.53
2022-11-13T06:26:34.859Z,101888.06
2022-11-13T06:29:03.013Z,101889.44
2022-11-13T06:31:32.805Z,101893.22
2022-11-13T06:33:59.804Z,101895.06
2022-11-13T06:36:32.793Z,101894.75
2022-11-13T06:39:00.007Z,101880.56
2022-11-13T06:41:31.088Z,101892.84
2022-11-13T06:44:02.634Z,101900.63
2022-11-13T06:46:31.335Z,101898.00
2022-11-13T06:48:58.182Z,101895.22
2022-11-13T06:51:31.398Z,101902.78
2022-11-13T06:53:58.478Z,101903.88
2022-11-13T06:56:25.132Z,101909.69
2022-11-13T06:58:51.874Z,101908.53
2022-11-13T07:01:21.321Z,101904.09
2022-11-13T07:03:48.476Z,101904.94
2022-11-13T07:06:21.542Z,101911.28
2022-11-13T07:08:48.703Z,101913.91
2022-11-13T07:11:17.921Z,101912.53
2022-11-13T07:13:45.496Z,101906.72
2022-11-13T07:16:17.284Z,101905.22
2022-11-13T07:18:44.729Z,101900.97
2022-11-13T07:21:12.448Z,101909.47
2022-11-13T07:23:43.013Z,101906.16
2022-11-13T07:26:11.340Z,101908.94
2022-11-13T07:28:38.413Z,101909.25
2022-11-13T07:31:05.586Z,101912.13
2022-11-13T07:33:32.260Z,101919.53
2022-11-13T07:35:59.823Z,101916.81
2022-11-13T07:38:26.850Z,101905.72
2022-11-13T07:40:53.828Z,101919.72
2022-11-13T07:43:20.498Z,101926.28
2022-11-13T07:45:46.957Z,101917.69
2022-11-13T07:48:13.400Z,101902.81
2022-11-13T07:50:40.053Z,101903.44
2022-11-13T07:53:08.702Z,101901.88
2022-11-13T07:55:35.846Z,101903.81
2022-11-13T07:58:03.426Z,101906.72
2022-11-13T08:00:31.857Z,101904.22
2022-11-13T08:02:58.830Z,101898.97
2022-11-13T08:05:25.275Z,101903.94
2022-11-13T08:07:52.332Z,101902.94
2022-11-13T08:10:20.025Z,101902.22
2022-11-13T08:12:47.224Z,101897.91
2022-11-13T08:15:14.412Z,101902.63
2022-11-13T08:17:40.982Z,101899.03
2022-11-13T08:20:08.994Z,101898.94
2022-11-13T08:22:35.583Z,101901.78
2022-11-13T08:25:02.125Z,101909.72
2022-11-13T08:27:28.521Z,101910.72
2022-11-13T08:29:54.993Z,101913.34
2022-11-13T08:32:22.534Z,101905.16
2022-11-13T08:34:49.299Z,101903.34
2022-11-13T08:37:16.024Z,101902.94
2022-11-13T08:39:42.547Z,101902.75
2022-11-13T08:42:08.989Z,101900.25
2022-11-13T08:44:35.415Z,101896.47
2022-11-13T08:47:01.860Z,101903.69
2022-11-13T08:52:03.720Z,101897.66
2022-11-13T08:54:30.206Z,101900.22
2022-11-13T08:56:59.650Z,101903.38
2022-11-13T08:59:28.518Z,101893.16
2022-11-13T09:01:59.262Z,101889.41
2022-11-13T09:04:26.481Z,101896.75
2022-11-13T09:06:53.122Z,101899.84
2022-11-13T09:09:20.205Z,101893.00
2022-11-13T09:11:46.717Z,101886.97
2022-11-13T09:14:13.241Z,101888.81
2022-11-13T09:16:39.958Z,101888.28
2022-11-13T09:19:06.459Z,101880.41
2022-11-13T09:21:32.901Z,101882.16
2022-11-13T09:23:59.381Z,101894.53
2022-11-13T09:26:25.837Z,101889.25
2022-11-13T09:28:52.365Z,101892.13
2022-11-13T09:31:18.830Z,101892.41
2022-11-13T09:33:45.270Z,101898.56
2022-11-13T09:36:14.227Z,101892.25
2022-11-13T09:38:41.245Z,101890.59
2022-11-13T09:41:20.501Z,101889.03
2022-11-13T09:43:59.235Z,101892.66
2022-11-13T09:46:40.507Z,101880.81
2022-11-13T09:49:25.340Z,101881.84
2022-11-13T09:51:55.694Z,101884.53
2022-11-13T09:54:22.776Z,101885.47
2022-11-13T09:57:04.165Z,101886.38
2022-11-13T09:59:39.672Z,101883.81
2022-11-13T10:02:34.237Z,101879.66
2022-11-13T10:05:04.888Z,101877.72
2022-11-13T10:07:57.960Z,101868.09
2022-11-13T10:11:01.961Z,101857.41
2022-11-13T10:13:59.661Z,101849.66
2022-11-13T10:16:33.995Z,101845.22
2022-11-13T10:19:19.840Z,101843.88
2022-11-13T10:22:07.727Z,101845.91
2022-11-13T10:24:43.156Z,101838.28
2022-11-13T10:27:11.859Z,101831.88
2022-11-13T10:29:39.003Z,101828.63
2022-11-13T10:32:29.321Z,101843.09
2022-11-13T10:35:23.186Z,101830.63
2022-11-13T10:38:18.232Z,101827.34
2022-11-13T10:40:44.755Z,101829.66
2022-11-13T10:43:19.740Z,101822.16
2022-11-13T10:46:04.934Z,101821.31
2022-11-13T10:48:33.803Z,101814.97
2022-11-13T10:51:04.413Z,101813.09
2022-11-13T10:53:42.082Z,101810.16
2022-11-13T10:56:34.784Z,101808.31
2022-11-13T10:59:14.388Z,101812.97
2022-11-13T11:01:43.658Z,101813.81
2022-11-13T11:04:19.362Z,101817.66
2022-11-13T11:07:18.552Z,101820.66
2022-11-13T11:09:38.397Z,101808.59
2022-11-13T11:12:17.091Z,101817.72
2022-11-13T11:14:57.652Z,101812.91
2022-11-13T11:17:51.084Z,101805.66
2022-11-13T11:20:36.246Z,101805.53
2022-11-13T11:23:21.846Z,101791.81
2022-11-13T11:26:08.475Z,101783.53
2022-11-13T11:28:46.097Z,101776.59
2022-11-13T11:31:23.236Z,101776.16
2022-11-13T11:33:56.628Z,101772.66
2022-11-13T11:36:23.109Z,101773.75
2022-11-13T11:39:31.195Z,101776.16
2022-11-13T11:42:10.089Z,101780.13
2022-11-13T11:44:50.284Z,101778.19
2022-11-13T11:47:18.037Z,101785.31
2022-11-13T11:49:45.167Z,101778.56
2022-11-13T11:52:31.720Z,101764.06
2022-11-13T11:55:04.308Z,101764.44
2022-11-13T11:57:33.724Z,101756.47
2022-11-13T12:00:06.297Z,101755.34
2022-11-13T12:02:47.710Z,101749.97
2022-11-13T12:05:29.646Z,101755.94
2022-11-13T12:08:05.973Z,101752.56
2022-11-13T12:10:38.283Z,101740.34
2022-11-13T12:13:16.656Z,101735.81
2022-11-13T12:16:00.891Z,101738.72
2022-11-13T12:18:47.736Z,101734.94
2022-11-13T12:21:29.529Z,101744.66
2022-11-13T12:24:01.794Z,101742.69
2022-11-13T12:26:47.248Z,101737.13
2022-11-13T12:29:19.404Z,101744.13
2022-11-13T12:31:53.572Z,101741.06
2022-11-13T12:34:29.078Z,101741.69
2022-11-13T12:36:56.505Z,101748.94
2022-11-13T12:39:45.609Z,101744.69
2022-11-13T12:42:21.405Z,101733.19
2022-11-13T12:45:19.657Z,101717.28
2022-11-13T12:47:49.630Z,101718.84
2022-11-13T12:50:32.741Z,101713.78
2022-11-13T12:53:05.678Z,101713.13
2022-11-13T12:55:34.854Z,101709.19
2022-11-13T12:58:21.474Z,101707.28
2022-11-13T13:01:17.582Z,101710.88
2022-11-13T13:04:00.875Z,101719.47
2022-11-13T13:07:01.314Z,101709.00
2022-11-13T13:09:52.182Z,101708.84
2022-11-13T13:12:42.436Z,101698.41
2022-11-13T13:15:23.152Z,101703.53
2022-11-13T13:17:49.563Z,101706.69
2022-11-13T13:20:15.945Z,101693.09
2022-11-13T13:22:42.406Z,101686.97
2022-11-13T13:25:28.025Z,101687.13
2022-11-13T13:28:04.220Z,101685.59
2022-11-13T13:30:46.158Z,101684.66
2022-11-13T13:33:26.727Z,101671.84
2022-11-13T13:36:22.924Z,101666.22
2022-11-13T13:39:19.019Z,101662.44
2022-11-13T13:41:51.188Z,101674.91
2022-11-13T13:44:32.893Z,101675.34
2022-11-13T13:46:59.585Z,101671.59
2022-11-13T13:49:28.640Z,101671.19
2022-11-13T13:51:57.329Z,101669.53
2022-11-13T13:54:29.042Z,101668.06
2022-11-13T13:56:57.804Z,101666.53
2022-11-13T13:59:33.296Z,101657.31
2022-11-13T14:02:02.140Z,101653.59
2022-11-13T14:04:32.902Z,101655.19
2022-11-13T14:07:01.543Z,101656.31
2022-11-13T14:09:30.317Z,101660.75
2022-11-13T14:11:58.345Z,101654.53
2022-11-13T14:14:25.590Z,101652.31
2022-11-13T14:16:54.031Z,101650.44
2022-11-13T14:19:20.818Z,101653.03
2022-11-13T14:21:50.264Z,101651.91
2022-11-13T14:24:27.704Z,101643.31
2022-11-13T14:26:56.407Z,101641.97
2022-11-13T14:29:32.384Z,101648.69
2022-11-13T14:32:10.521Z,101648.41
2022-11-13T14:34:37.944Z,101644.44
2022-11-13T14:37:13.936Z,101632.59
2022-11-13T14:39:40.529Z,101632.75
2022-11-13T14:42:07.001Z,101624.25
2022-11-13T14:44:34.801Z,101624.44
2022-11-13T14:47:20.423Z,101632.22
2022-11-13T14:49:46.873Z,101626.44
2022-11-13T14:52:25.014Z,101628.88
2022-11-13T14:55:18.535Z,101631.59
2022-11-13T14:57:49.447Z,101634.06
2022-11-13T15:00:26.866Z,101628.94
2022-11-13T15:02:53.322Z,101627.69
2022-11-13T15:05:19.751Z,101632.41
2022-11-13T15:07:46.784Z,101633.75
2022-11-13T15:10:16.353Z,101629.50
2022-11-13T15:12:42.847Z,101616.41
2022-11-13T15:15:15.163Z,101630.28
2022-11-13T15:17:43.450Z,101625.16
2022-11-13T15:20:18.474Z,101624.63
2022-11-13T15:22:45.146Z,101619.91
2022-11-13T15:25:16.595Z,101613.00
2022-11-13T15:27:43.581Z,101618.41
2022-11-13T15:30:11.202Z,101610.22
2022-11-13T15:32:38.126Z,101614.47
2022-11-13T15:35:06.343Z,101612.72
2022-11-13T15:37:33.487Z,101602.03
2022-11-13T15:40:00.031Z,101606.78
2022-11-13T15:42:33.075Z,101607.75
2022-11-13T15:44:59.612Z,101595.38
2022-11-13T15:47:26.354Z,101599.38
2022-11-13T15:50:12.534Z,101595.94
2022-11-13T15:52:41.876Z,101595.00
2022-11-13T15:55:19.700Z,101592.81
2022-11-13T15:57:46.297Z,101584.75
2022-11-13T16:00:17.103Z,101586.78
2022-11-13T16:02:43.583Z,101582.78
2022-11-13T16:05:10.321Z,101589.25
2022-11-13T16:07:39.869Z,101596.19
2022-11-13T16:10:10.613Z,101592.00
2022-11-13T16:12:37.025Z,101583.78
2022-11-13T16:15:03.894Z,101582.53
2022-11-13T16:17:42.172Z,101589.22
2022-11-13T16:20:16.459Z,101585.06
2022-11-13T16:22:43.991Z,101579.72
2022-11-13T16:25:17.323Z,101570.88
2022-11-13T16:27:43.820Z,101568.72
2022-11-13T16:30:15.494Z,101574.38
2022-11-13T16:32:42.003Z,101563.78
2022-11-13T16:35:15.689Z,101568.44
2022-11-13T16:37:42.721Z,101549.75
2022-11-13T16:40:20.649Z,101556.28
2022-11-13T16:42:47.296Z,101558.81
2022-11-13T16:45:13.799Z,101549.09
2022-11-13T16:47:40.298Z,101551.44
2022-11-13T16:50:18.584Z,101555.09
2022-11-13T16:52:45.126Z,101553.72
2022-11-13T16:55:11.622Z,101562.78
2022-11-13T16:57:38.215Z,101551.09
2022-11-13T17:00:07.274Z,101550.94
2022-11-13T17:02:33.805Z,101553.69
2022-11-13T17:05:00.263Z,101550.69
2022-11-13T17:07:26.990Z,101550.69
2022-11-13T17:10:16.524Z,101546.50
2022-11-13T17:12:40.137Z,101546.06
2022-11-13T17:15:07.047Z,101541.16
2022-11-13T17:17:33.505Z,101540.97
2022-11-13T17:19:59.920Z,101534.06
2022-11-13T17:22:26.397Z,101532.50
2022-11-13T17:24:52.840Z,101532.91
2022-11-13T17:27:19.244Z,101536.22
2022-11-13T17:29:45.668Z,101545.19
2022-11-13T17:32:12.093Z,101537.56
2022-11-13T17:34:38.530Z,101540.63
2022-11-13T17:37:04.977Z,101540.16
2022-11-13T17:39:31.432Z,101546.81
2022-11-13T17:41:57.880Z,101532.66
2022-11-13T17:44:24.356Z,101543.78
2022-11-13T17:46:51.943Z,101535.25
2022-11-13T17:49:18.429Z,101536.75
2022-11-13T17:51:44.870Z,101532.16
2022-11-13T17:54:11.338Z,101531.66
2022-11-13T17:56:38.473Z,101529.38
2022-11-13T17:59:05.030Z,101526.97
2022-11-13T18:01:33.548Z,101513.00
2022-11-13T18:04:00.232Z,101517.78
2022-11-13T18:06:26.744Z,101519.97
2022-11-13T18:08:53.233Z,101517.19
2022-11-13T18:11:22.403Z,101518.31
2022-11-13T18:13:50.781Z,101502.22
2022-11-13T18:16:34.451Z,101497.16
2022-11-13T18:19:03.602Z,101497.84
2022-11-13T18:21:32.811Z,101486.03
2022-11-13T18:24:03.592Z,101488.22
2022-11-13T18:26:31.316Z,101484.75
2022-11-13T18:28:58.537Z,101487.00
2022-11-13T18:31:25.508Z,101475.50
2022-11-13T18:33:52.066Z,101481.25
2022-11-13T18:36:18.767Z,101484.56
2022-11-13T18:38:45.277Z,101473.16
2022-11-13T18:41:15.297Z,101469.81
2022-11-13T18:43:46.509Z,101473.75
2022-11-13T18:46:14.580Z,101479.56
2022-11-13T18:48:42.895Z,101471.56
2022-11-13T18:51:17.847Z,101474.88
2022-11-13T18:53:45.701Z,101473.81
2022-11-13T18:56:15.079Z,101470.72
2022-11-13T18:58:43.000Z,101471.97
2022-11-13T19:01:21.596Z,101455.19
2022-11-13T19:06:37.795Z,101457.41
2022-11-13T19:09:12.553Z,101463.19
2022-11-13T19:11:39.885Z,101449.09
2022-11-13T19:14:07.449Z,101448.88
2022-11-13T19:16:36.944Z,101440.00
2022-11-13T19:19:24.163Z,101436.66
2022-11-13T19:21:51.033Z,101433.88
2022-11-13T19:24:17.736Z,101425.69
2022-11-13T19:26:44.937Z,101439.00
2022-11-13T19:29:11.735Z,101421.97
2022-11-13T19:31:38.263Z,101421.53
2022-11-13T19:34:07.120Z,101422.03
2022-11-13T19:36:34.522Z,101416.19
2022-11-13T19:39:01.116Z,101420.59
2022-11-13T19:41:29.076Z,101419.03
2022-11-13T19:43:58.069Z,101410.22
2022-11-13T19:46:24.509Z,101416.53
2022-11-13T19:48:51.812Z,101416.63
2022-11-13T19:51:23.529Z,101407.06
2022-11-13T19:53:54.824Z,101400.28
2022-11-13T19:56:22.464Z,101395.56
2022-11-13T19:58:50.407Z,101391.75
2022-11-13T20:01:20.030Z,101384.50
2022-11-13T20:03:46.638Z,101384.75
2022-11-13T20:06:16.822Z,101381.41
2022-11-13T20:08:43.890Z,101374.88
2022-11-13T20:11:11.929Z,101380.97
2022-11-13T20:13:39.240Z,101379.06
2022-11-13T20:16:06.890Z,101371.47
2022-11-13T20:18:33.474Z,101375.81
2022-11-13T20:21:00.482Z,101374.88
2022-11-13T20:23:27.061Z,101375.88
2022-11-13T20:26:04.563Z,101371.38
2022-11-13T20:28:31.827Z,101367.84
2022-11-13T20:31:19.433Z,101380.81
2022-11-13T20:33:47.432Z,101386.03
2022-11-13T20:36:15.009Z,101376.91
2022-11-13T20:38:44.235Z,101382.25
2022-11-13T20:41:11.308Z,101365.88
2022-11-13T20:43:38.040Z,101379.97
2022-11-13T20:46:11.978Z,101367.66
2022-11-13T20:48:38.548Z,101364.13
2022-11-13T20:51:22.303Z,101363.56
2022-11-13T20:53:49.148Z,101366.97
2022-11-13T20:56:17.266Z,101365.25
2022-11-13T20:58:43.904Z,101362.06
2022-11-13T21:01:30.254Z,101355.75
2022-11-13T21:03:59.392Z,101349.88
2022-11-13T21:06:25.919Z,101352.78
2022-11-13T21:08:56.672Z,101347.56
2022-11-13T21:11:27.589Z,101346.69
2022-11-13T21:13:55.446Z,101349.63
2022-11-13T21:16:22.562Z,101346.00
2022-11-13T21:18:49.196Z,101346.97
2022-11-13T21:21:21.448Z,101353.88
2022-11-13T21:23:48.737Z,101333.13
2022-11-13T21:26:15.675Z,101333.13
2022-11-13T21:28:42.911Z,101326.34
2022-11-13T21:31:19.448Z,101326.16
2022-11-13T21:33:47.178Z,101323.38
2022-11-13T21:36:19.848Z,101321.59
2022-11-13T21:38:46.472Z,101317.44
2022-11-13T21:41:24.854Z,101311.94
2022-11-13T21:43:58.540Z,101314.31
2022-11-13T21:46:30.774Z,101303.66
2022-11-13T21:48:59.794Z,101300.91
2022-11-13T21:51:26.620Z,101300.13
2022-11-13T21:53:53.108Z,101298.09
2022-11-13T21:56:19.595Z,101301.53
2022-11-13T21:58:46.021Z,101290.78
2022-11-13T22:01:13.364Z,101296.06
2022-11-13T22:03:40.121Z,101290.81
2022-11-13T22:06:26.218Z,101286.28
2022-11-13T22:08:57.869Z,101284.19
2022-11-13T22:11:27.803Z,101278.19
2022-11-13T22:13:54.571Z,101285.34
2022-11-13T22:16:22.197Z,101294.53
2022-11-13T22:18:52.533Z,101291.19
2022-11-13T22:21:18.976Z,101279.34
2022-11-13T22:23:45.413Z,101284.66
2022-11-13T22:26:14.440Z,101277.03
2022-11-13T22:28:42.413Z,101283.63
2022-11-13T22:31:16.322Z,101278.34
2022-11-13T22:33:47.788Z,101281.31
2022-11-13T22:36:20.316Z,101276.94
2022-11-13T22:38:47.212Z,101269.09
2022-11-13T22:41:23.166Z,101275.63
2022-11-13T22:43:56.807Z,101280.38
2022-11-13T22:46:25.721Z,101257.59
2022-11-13T22:48:54.148Z,101270.16
2022-11-13T22:51:30.076Z,101267.47
2022-11-13T22:54:02.025Z,101265.59
2022-11-13T22:56:30.690Z,101260.88
2022-11-13T22:59:00.556Z,101259.75
2022-11-13T23:01:32.500Z,101260.88
2022-11-13T23:04:02.015Z,101259.38
2022-11-13T23:06:30.932Z,101266.22
2022-11-13T23:08:57.883Z,101257.75
2022-11-13T23:11:33.024Z,101242.16
2022-11-13T23:14:02.214Z,101247.66
2022-11-13T23:16:30.215Z,101258.94
2022-11-13T23:18:58.344Z,101259.38
2022-11-13T23:21:28.124Z,101260.56
2022-11-13T23:23:55.252Z,101254.41
2022-11-13T23:26:22.591Z,101238.78
2022-11-13T23:28:49.090Z,101232.56
2022-11-13T23:31:15.709Z,101239.88
2022-11-13T23:33:42.750Z,101245.16
2022-11-13T23:36:11.234Z,101241.34
2022-11-13T23:38:37.817Z,101242.47
2022-11-13T23:41:04.661Z,101233.84
2022-11-13T23:43:54.343Z,101237.00
2022-11-13T23:46:17.808Z,101231.28
2022-11-13T23:48:44.217Z,101237.56
2022-11-13T23:51:10.771Z,101221.78
2022-11-13T23:53:37.233Z,101223.44
2022-11-13T23:56:03.980Z,101217.47
2022-11-13T23:58:32.489Z,101220.72
